Time;durP1;ratioP1;P1;durP2;ratioP2;P2;SDS_P1;SDS_P2;PMS_P1;PMS_P2;Temp;Humidity;BMP_temperature;BMP_pressure;BME280_temperature;BME280_humidity;BME280_pressure;Samples;Min_cycle;Max_cycle;Signal;HPM_P1;HPM_P2
2022/04/01 00:01:48;;;;;;;6.68;5.30;;;;;;;;;;5175138;27;20525;-72
2022/04/01 00:04:14;;;;;;;7.45;5.40;;;;;;;;;;5170657;27;20023;-72
2022/04/01 00:06:39;;;;;;;7.75;5.47;;;;;;;;;;5137223;27;20596;-72
2022/04/01 00:09:04;;;;;;;7.45;5.88;;;;;;;;;;5144932;27;20122;-71
2022/04/01 00:11:30;;;;;;;7.65;5.95;;;;;;;;;;5143845;27;20023;-72
2022/04/01 00:13:56;;;;;;;8.70;5.85;;;;;;;;;;5144554;27;20192;-72
2022/04/01 00:16:21;;;;;;;10.35;6.40;;;;;;;;;;5150286;27;20009;-71
2022/04/01 00:18:46;;;;;;;9.65;6.22;;;;;;;;;;5130875;27;20056;-72
2022/04/01 00:21:11;;;;;;;7.72;6.00;;;;;;;;;;5149976;27;20019;-73
2022/04/01 00:23:37;;;;;;;7.88;6.05;;;;;;;;;;5150366;27;20045;-72
2022/04/01 00:26:02;;;;;;;7.93;6.03;;;;;;;;;;5139089;27;20015;-73
2022/04/01 00:28:27;;;;;;;9.57;5.90;;;;;;;;;;5155069;27;20010;-73
2022/04/01 00:30:54;;;;;;;8.98;5.85;;;;;;;;;;5172993;27;20014;-73
2022/04/01 00:33:20;;;;;;;8.07;5.72;;;;;;;;;;5151670;27;20154;-73
2022/04/01 00:35:45;;;;;;;9.20;6.05;;;;;;;;;;5152822;27;20007;-75
2022/04/01 00:38:12;;;;;;;8.20;5.57;;;;;;;;;;5156986;27;20031;-73
2022/04/01 00:40:37;;;;;;;7.60;6.22;;;;;;;;;;5132096;27;20479;-74
2022/04/01 00:43:03;;;;;;;9.13;6.10;;;;;;;;;;5150955;27;20113;-72
2022/04/01 00:45:31;;;;;;;9.05;5.78;;;;;;;;;;5112129;27;20259;-75
2022/04/01 00:48:01;;;;;;;8.60;5.88;;;;;;;;;;5110909;27;20081;-74
2022/04/01 00:50:27;;;;;;;7.15;5.72;;;;;;;;;;5110748;27;20025;-74
2022/04/01 00:52:53;;;;;;;8.10;6.18;;;;;;;;;;5110160;27;20333;-73
2022/04/01 00:55:18;;;;;;;8.23;6.25;;;;;;;;;;5111304;27;20027;-73
2022/04/01 00:57:43;;;;;;;8.60;6.18;;;;;;;;;;5130287;27;20508;-74
2022/04/01 01:00:09;;;;;;;7.75;6.28;;;;;;;;;;5130795;27;20011;-73
2022/04/01 01:02:35;;;;;;;10.32;7.50;;;;;;;;;;5110545;27;20127;-74
2022/04/01 01:05:03;;;;;;;11.30;6.30;;;;;;;;;;5111444;27;20068;-73
2022/04/01 01:07:29;;;;;;;9.95;6.78;;;;;;;;;;5094249;27;20209;-73
2022/04/01 01:09:54;;;;;;;11.68;7.45;;;;;;;;;;5112722;27;20019;-74
2022/04/01 01:12:19;;;;;;;9.30;6.78;;;;;;;;;;5114049;27;20026;-73
2022/04/01 01:14:44;;;;;;;8.23;6.97;;;;;;;;;;5133460;27;20014;-74
2022/04/01 01:17:12;;;;;;;9.90;7.20;;;;;;;;;;5114393;27;20483;-74
2022/04/01 01:19:37;;;;;;;9.63;7.45;;;;;;;;;;5131984;27;20411;-74
2022/04/01 01:22:03;;;;;;;10.88;8.10;;;;;;;;;;5150771;27;20111;-76
2022/04/01 01:24:31;;;;;;;10.07;7.75;;;;;;;;;;5132118;27;20095;-73
2022/04/01 01:26:57;;;;;;;10.57;8.02;;;;;;;;;;5150941;27;20062;-73
2022/04/01 01:29:23;;;;;;;8.85;6.82;;;;;;;;;;5151475;27;20494;-73
2022/04/01 01:31:49;;;;;;;8.93;6.75;;;;;;;;;;5132861;27;20045;-73
2022/04/01 01:34:16;;;;;;;9.90;7.05;;;;;;;;;;5150098;27;20513;-73
2022/04/01 01:36:41;;;;;;;9.57;7.30;;;;;;;;;;5131952;27;20026;-73
2022/04/01 01:39:06;;;;;;;9.30;6.90;;;;;;;;;;5153787;27;20019;-73
2022/04/01 01:41:32;;;;;;;10.73;7.93;;;;;;;;;;5150402;27;20029;-73
2022/04/01 01:43:57;;;;;;;9.65;6.95;;;;;;;;;;5116673;27;20470;-72
2022/04/01 01:46:23;;;;;;;9.55;7.20;;;;;;;;;;5113750;27;20014;-73
2022/04/01 01:48:48;;;;;;;10.00;6.93;;;;;;;;;;5150135;27;20115;-72
2022/04/01 01:57:17;;;;;;;7.80;6.95;;;;;;;;;;4992556;28;20025;-73
2022/04/01 01:59:43;;;;;;;10.77;7.20;;;;;;;;;;5086396;27;20027;-71
2022/04/01 02:02:09;;;;;;;8.23;7.18;;;;;;;;;;5108600;27;20125;-72
2022/04/01 02:04:35;;;;;;;9.27;7.28;;;;;;;;;;5148370;27;20023;-73
2022/04/01 02:07:00;;;;;;;9.23;7.00;;;;;;;;;;5129954;27;20182;-72
2022/04/01 02:09:25;;;;;;;10.55;7.10;;;;;;;;;;5129873;27;20521;-73
2022/04/01 02:11:52;;;;;;;11.25;7.97;;;;;;;;;;5130697;27;20480;-73
2022/04/01 02:14:18;;;;;;;8.32;7.00;;;;;;;;;;5129970;27;20023;-73
2022/04/01 02:16:43;;;;;;;9.88;6.72;;;;;;;;;;5130009;27;20177;-73
2022/04/01 02:19:09;;;;;;;9.95;7.38;;;;;;;;;;5128161;27;20213;-72
2022/04/01 02:21:35;;;;;;;9.05;6.57;;;;;;;;;;5129214;27;20049;-72
2022/04/01 02:24:00;;;;;;;10.90;7.72;;;;;;;;;;5133546;27;20301;-73
2022/04/01 02:26:25;;;;;;;9.52;6.95;;;;;;;;;;5124226;27;20115;-72
2022/04/01 02:28:50;;;;;;;8.40;7.10;;;;;;;;;;5129359;27;20023;-75
2022/04/01 02:31:17;;;;;;;11.85;7.68;;;;;;;;;;5148070;27;20080;-73
2022/04/01 02:33:43;;;;;;;11.05;7.78;;;;;;;;;;5131468;27;20106;-74
2022/04/01 02:36:10;;;;;;;10.30;7.57;;;;;;;;;;5127395;27;20546;-74
2022/04/01 02:38:36;;;;;;;9.27;7.55;;;;;;;;;;5127625;27;20051;-73
2022/04/01 02:41:01;;;;;;;10.10;7.43;;;;;;;;;;5146868;27;20425;-74
2022/04/01 02:43:28;;;;;;;8.63;7.38;;;;;;;;;;5110520;27;20595;-73
2022/04/01 02:45:53;;;;;;;9.70;7.45;;;;;;;;;;5129156;27;20125;-74
2022/04/01 02:48:20;;;;;;;9.88;7.80;;;;;;;;;;5145855;27;20025;-74
2022/04/01 02:50:47;;;;;;;10.25;7.95;;;;;;;;;;5127384;27;20027;-74
2022/04/01 02:53:13;;;;;;;10.07;8.57;;;;;;;;;;5127693;27;20078;-75
2022/04/01 02:55:39;;;;;;;11.10;8.35;;;;;;;;;;5133086;27;20027;-74
2022/04/01 02:58:06;;;;;;;12.15;7.93;;;;;;;;;;5127420;27;20007;-76
2022/04/01 03:00:32;;;;;;;11.60;8.88;;;;;;;;;;5127848;27;20019;-74
2022/04/01 03:02:57;;;;;;;9.35;7.95;;;;;;;;;;5124487;27;20715;-76
2022/04/01 03:05:23;;;;;;;10.05;8.07;;;;;;;;;;5120012;27;20619;-74
2022/04/01 03:07:48;;;;;;;9.02;7.35;;;;;;;;;;5094832;27;20441;-74
2022/04/01 03:10:14;;;;;;;9.73;8.40;;;;;;;;;;5132974;27;20015;-77
2022/04/01 03:12:39;;;;;;;11.13;7.65;;;;;;;;;;5121369;27;20081;-73
2022/04/01 03:15:04;;;;;;;11.10;8.18;;;;;;;;;;5110372;27;20039;-75
2022/04/01 03:17:31;;;;;;;10.52;7.97;;;;;;;;;;5112193;27;20497;-74
2022/04/01 03:19:56;;;;;;;12.85;8.52;;;;;;;;;;5110101;27;20365;-76
2022/04/01 03:22:22;;;;;;;12.93;8.65;;;;;;;;;;5126071;27;20109;-74
2022/04/01 03:24:47;;;;;;;10.00;8.02;;;;;;;;;;5115508;27;20393;-73
2022/04/01 03:27:13;;;;;;;11.35;8.00;;;;;;;;;;5128460;27;20054;-74
2022/04/01 03:29:38;;;;;;;12.90;7.63;;;;;;;;;;5112040;27;20117;-75
2022/04/01 03:32:04;;;;;;;12.07;8.48;;;;;;;;;;5118142;27;20392;-75
2022/04/01 03:34:29;;;;;;;12.00;8.73;;;;;;;;;;5136203;27;20090;-75
2022/04/01 03:36:54;;;;;;;9.82;7.22;;;;;;;;;;5136952;27;20019;-76
2022/04/01 03:39:21;;;;;;;11.65;8.02;;;;;;;;;;5127158;27;20110;-74
2022/04/01 03:41:48;;;;;;;11.30;8.18;;;;;;;;;;5101359;27;20035;-74
2022/04/01 03:44:13;;;;;;;10.63;7.60;;;;;;;;;;5102061;27;20050;-76
2022/04/01 03:46:44;;;;;;;10.35;7.50;;;;;;;;;;5109549;27;20531;-77
2022/04/01 03:49:12;;;;;;;11.38;7.40;;;;;;;;;;5105773;27;20023;-76
2022/04/01 03:51:38;;;;;;;11.68;7.97;;;;;;;;;;5137228;27;20083;-75
2022/04/01 03:54:05;;;;;;;12.50;7.93;;;;;;;;;;5126503;27;20025;-76
2022/04/01 03:56:37;;;;;;;11.25;7.05;;;;;;;;;;5102912;27;20385;-74
2022/04/01 03:59:06;;;;;;;9.57;7.40;;;;;;;;;;5125893;27;20374;-74
2022/04/01 04:01:31;;;;;;;9.73;6.95;;;;;;;;;;5104648;27;20051;-76
2022/04/01 04:03:57;;;;;;;11.40;8.10;;;;;;;;;;5109517;27;20073;-76
2022/04/01 04:06:23;;;;;;;11.77;7.35;;;;;;;;;;5092429;27;20136;-75
2022/04/01 04:08:50;;;;;;;9.80;6.65;;;;;;;;;;5086300;27;20061;-73
2022/04/01 04:11:17;;;;;;;8.63;6.47;;;;;;;;;;5105664;27;20047;-75
2022/04/01 04:13:45;;;;;;;9.80;6.85;;;;;;;;;;5086697;27;20457;-74
2022/04/01 04:16:19;;;;;;;11.10;6.40;;;;;;;;;;5123756;27;20026;-75
2022/04/01 04:18:48;;;;;;;9.10;5.47;;;;;;;;;;5102632;27;20039;-77
2022/04/01 04:21:24;;;;;;;10.45;5.88;;;;;;;;;;5104989;27;20034;-75
2022/04/01 04:23:53;;;;;;;9.38;5.53;;;;;;;;;;5099832;27;20534;-73
2022/04/01 04:26:23;;;;;;;10.20;5.55;;;;;;;;;;5126527;27;20099;-74
2022/04/01 04:28:50;;;;;;;8.27;5.10;;;;;;;;;;5120377;27;20104;-74
2022/04/01 04:31:23;;;;;;;7.25;5.07;;;;;;;;;;5123215;27;20444;-74
2022/04/01 04:33:50;;;;;;;8.18;5.60;;;;;;;;;;5146046;27;20115;-74
2022/04/01 04:36:17;;;;;;;10.18;5.63;;;;;;;;;;5145753;27;20029;-75
2022/04/01 04:38:45;;;;;;;9.60;5.57;;;;;;;;;;5145140;27;20054;-74
2022/04/01 04:41:10;;;;;;;7.85;4.80;;;;;;;;;;5134732;27;20625;-74
2022/04/01 04:43:41;;;;;;;8.55;5.45;;;;;;;;;;5091063;27;20082;-74
2022/04/01 04:46:06;;;;;;;9.73;5.90;;;;;;;;;;5127250;27;20027;-74
2022/04/01 04:48:32;;;;;;;8.43;5.78;;;;;;;;;;5104934;27;20023;-75
2022/04/01 04:50:59;;;;;;;9.80;5.53;;;;;;;;;;5106270;27;20029;-74
2022/04/01 04:53:28;;;;;;;12.40;5.90;;;;;;;;;;5124683;27;20019;-74
2022/04/01 04:55:54;;;;;;;8.60;5.30;;;;;;;;;;5107829;27;20019;-74
2022/04/01 04:58:21;;;;;;;11.23;5.25;;;;;;;;;;5107947;27;20022;-74
2022/04/01 05:00:49;;;;;;;10.05;4.50;;;;;;;;;;5112549;27;20025;-73
2022/04/01 05:03:17;;;;;;;8.63;4.30;;;;;;;;;;5145627;27;20395;-75
2022/04/01 05:05:44;;;;;;;7.43;4.57;;;;;;;;;;5124647;27;20113;-75
2022/04/01 05:08:30;;;;;;;11.52;4.53;;;;;;;;;;5126262;27;20437;-74
2022/04/01 05:11:14;;;;;;;9.18;4.80;;;;;;;;;;5123940;27;20031;-74
2022/04/01 05:13:40;;;;;;;7.80;4.28;;;;;;;;;;5135430;27;20443;-73
2022/04/01 05:16:09;;;;;;;7.55;4.32;;;;;;;;;;5146320;27;20453;-74
2022/04/01 05:19:10;;;;;;;9.02;5.28;;;;;;;;;;5104571;27;20641;-74
2022/04/01 05:21:49;;;;;;;9.95;4.80;;;;;;;;;;5018204;28;20468;-76
2022/04/01 05:24:16;;;;;;;8.60;4.70;;;;;;;;;;5105855;27;20027;-76
2022/04/01 05:26:43;;;;;;;9.75;4.85;;;;;;;;;;5143244;27;20033;-76
2022/04/01 05:29:23;;;;;;;8.70;4.47;;;;;;;;;;5127631;27;20484;-74
2022/04/01 05:31:55;;;;;;;8.27;5.10;;;;;;;;;;5106805;27;20289;-77
2022/04/01 05:34:36;;;;;;;10.40;5.00;;;;;;;;;;5119970;27;20144;-74
2022/04/01 05:37:02;;;;;;;7.53;4.68;;;;;;;;;;5126147;27;20038;-76
2022/04/01 05:39:28;;;;;;;6.95;4.43;;;;;;;;;;5146223;27;20025;-77
2022/04/01 05:41:54;;;;;;;7.22;4.63;;;;;;;;;;5145420;27;20030;-77
2022/04/01 05:44:19;;;;;;;8.88;4.53;;;;;;;;;;5134312;27;20043;-74
2022/04/01 05:46:45;;;;;;;11.32;4.90;;;;;;;;;;5124638;27;20051;-76
2022/04/01 05:49:12;;;;;;;9.45;5.03;;;;;;;;;;5132008;27;20373;-76
2022/04/01 05:51:37;;;;;;;10.90;4.93;;;;;;;;;;5143998;27;20027;-77
2022/04/01 05:54:03;;;;;;;9.93;4.88;;;;;;;;;;5128338;27;20074;-76
2022/04/01 05:56:31;;;;;;;10.98;5.72;;;;;;;;;;5110837;27;20046;-77
2022/04/01 05:58:57;;;;;;;9.20;5.13;;;;;;;;;;5107209;27;20179;-77
2022/04/01 06:01:22;;;;;;;7.75;4.53;;;;;;;;;;5106626;27;20031;-77
2022/04/01 06:04:06;;;;;;;10.07;4.20;;;;;;;;;;5115957;27;20018;-75
2022/04/01 06:06:35;;;;;;;8.20;3.75;;;;;;;;;;5121988;27;20094;-76
2022/04/01 06:09:09;;;;;;;8.68;3.95;;;;;;;;;;5105320;27;20027;-76
2022/04/01 06:11:41;;;;;;;9.57;4.20;;;;;;;;;;5118490;27;20352;-77
2022/04/01 06:14:14;;;;;;;8.77;3.93;;;;;;;;;;5111386;27;20113;-76
2022/04/01 06:16:39;;;;;;;;;;;;;;;;;;5112256;27;20015;-76
2022/04/01 06:19:17;;;;;;;6.30;3.53;;;;;;;;;;5116960;27;19930;-76
2022/04/01 06:22:03;;;;;;;6.95;3.78;;;;;;;;;;5121506;27;20038;-75
2022/04/01 06:24:28;;;;;;;5.70;3.83;;;;;;;;;;5123485;27;20030;-78
2022/04/01 06:27:03;;;;;;;9.57;3.97;;;;;;;;;;5128006;27;20960;-74
2022/04/01 06:29:36;;;;;;;10.52;3.38;;;;;;;;;;5125299;27;20114;-76
2022/04/01 06:32:05;;;;;;;7.93;3.47;;;;;;;;;;5116958;27;20023;-75
2022/04/01 06:34:57;;;;;;;9.13;3.45;;;;;;;;;;5109070;27;20123;-76
2022/04/01 06:37:26;;;;;;;9.70;4.55;;;;;;;;;;5128764;27;20548;-75
2022/04/01 06:40:04;;;;;;;8.27;3.55;;;;;;;;;;5128643;27;20071;-76
2022/04/01 06:42:30;;;;;;;6.40;3.17;;;;;;;;;;5115128;27;20113;-74
2022/04/01 06:44:56;;;;;;;7.40;3.60;;;;;;;;;;5130064;27;20381;-74
2022/04/01 06:47:21;;;;;;;4.90;3.03;;;;;;;;;;5115552;27;20648;-74
2022/04/01 06:49:46;;;;;;;5.97;3.30;;;;;;;;;;5115552;27;20023;-75
2022/04/01 06:52:11;;;;;;;5.60;3.25;;;;;;;;;;5111429;27;20035;-76
2022/04/01 06:54:38;;;;;;;9.60;3.83;;;;;;;;;;5117796;27;20030;-75
2022/04/01 06:57:04;;;;;;;4.45;3.15;;;;;;;;;;5109339;27;20027;-76
2022/04/01 06:59:29;;;;;;;5.82;3.08;;;;;;;;;;5144616;27;20018;-77
2022/04/01 07:01:55;;;;;;;5.32;2.80;;;;;;;;;;5141798;27;20045;-74
2022/04/01 07:04:21;;;;;;;7.97;3.22;;;;;;;;;;5117433;27;20019;-75
2022/04/01 07:06:47;;;;;;;6.03;3.33;;;;;;;;;;5101230;27;20030;-77
2022/04/01 07:09:12;;;;;;;8.23;3.17;;;;;;;;;;5105734;27;20106;-75
2022/04/01 07:11:39;;;;;;;3.95;2.60;;;;;;;;;;5088770;27;20183;-76
2022/04/01 07:14:04;;;;;;;7.00;2.97;;;;;;;;;;5087793;27;20103;-77
2022/04/01 07:16:29;;;;;;;6.32;2.63;;;;;;;;;;5123919;27;20056;-75
2022/04/01 07:18:54;;;;;;;5.18;2.50;;;;;;;;;;5129829;27;20106;-76
2022/04/01 07:21:23;;;;;;;5.72;2.65;;;;;;;;;;5111066;27;20378;-76
2022/04/01 07:23:48;;;;;;;4.43;2.53;;;;;;;;;;5107123;27;20047;-76
2022/04/01 07:26:14;;;;;;;6.53;2.60;;;;;;;;;;5135030;27;20381;-74
2022/04/01 07:28:43;;;;;;;6.07;2.67;;;;;;;;;;5126172;27;20430;-75
2022/04/01 07:33:52;;;;;;;8.05;2.70;;;;;;;;;;5114713;27;20055;-75
2022/04/01 07:36:19;;;;;;;6.80;2.50;;;;;;;;;;5117140;27;20020;-74
2022/04/01 07:38:45;;;;;;;4.78;2.53;;;;;;;;;;5103398;27;20504;-73
2022/04/01 07:41:11;;;;;;;11.00;2.63;;;;;;;;;;5105403;27;20489;-74
2022/04/01 07:43:36;;;;;;;6.80;3.22;;;;;;;;;;5105747;27;20062;-74
2022/04/01 07:46:02;;;;;;;5.30;2.80;;;;;;;;;;5123086;27;20023;-76
2022/04/01 07:48:27;;;;;;;5.30;2.53;;;;;;;;;;5127331;27;20088;-74
2022/04/01 07:50:52;;;;;;;4.63;2.17;;;;;;;;;;5093768;27;20020;-74
2022/04/01 07:53:17;;;;;;;4.18;2.42;;;;;;;;;;5124238;27;20022;-75
2022/04/01 07:55:48;;;;;;;5.03;2.38;;;;;;;;;;5129333;27;20023;-75
2022/04/01 07:58:14;;;;;;;4.32;2.15;;;;;;;;;;5123802;27;20026;-77
2022/04/01 08:00:39;;;;;;;5.30;2.28;;;;;;;;;;5141736;27;20662;-76
2022/04/01 08:03:05;;;;;;;3.42;2.08;;;;;;;;;;5124528;27;20029;-77
2022/04/01 08:05:30;;;;;;;4.18;2.10;;;;;;;;;;5127277;27;20090;-77
2022/04/01 08:07:55;;;;;;;5.30;2.13;;;;;;;;;;5109814;27;20075;-77
2022/04/01 08:10:21;;;;;;;4.53;2.20;;;;;;;;;;5132464;27;20022;-76
2022/04/01 08:12:47;;;;;;;5.10;2.05;;;;;;;;;;5140409;27;20057;-76
2022/04/01 08:15:14;;;;;;;3.28;2.00;;;;;;;;;;5107845;27;20356;-76
2022/04/01 08:17:39;;;;;;;3.63;2.10;;;;;;;;;;5093733;27;20027;-77
2022/04/01 08:20:10;;;;;;;3.70;1.70;;;;;;;;;;5106920;27;20025;-76
2022/04/01 08:22:35;;;;;;;4.70;2.10;;;;;;;;;;5120327;27;20497;-77
2022/04/01 08:25:00;;;;;;;3.92;2.40;;;;;;;;;;5092185;27;20030;-76
2022/04/01 08:27:26;;;;;;;3.08;2.15;;;;;;;;;;5108594;27;20076;-76
2022/04/01 08:29:55;;;;;;;4.65;2.10;;;;;;;;;;5111562;27;20036;-75
2022/04/01 08:32:23;;;;;;;4.38;2.35;;;;;;;;;;5129465;27;20022;-75
2022/04/01 08:34:48;;;;;;;4.40;2.00;;;;;;;;;;5146640;27;20011;-75
2022/04/01 08:37:14;;;;;;;3.55;2.00;;;;;;;;;;5103353;27;20417;-74
2022/04/01 08:39:43;;;;;;;3.47;1.70;;;;;;;;;;5098542;27;20326;-74
2022/04/01 08:42:09;;;;;;;4.07;2.10;;;;;;;;;;5105167;27;20134;-75
2022/04/01 08:44:37;;;;;;;7.32;1.63;;;;;;;;;;5080133;28;20142;-73
2022/04/01 08:47:03;;;;;;;5.65;2.20;;;;;;;;;;5086917;28;20096;-73
2022/04/01 08:49:29;;;;;;;3.60;1.92;;;;;;;;;;5103904;28;20418;-74
2022/04/01 08:51:54;;;;;;;2.20;1.63;;;;;;;;;;5100063;27;20126;-74
2022/04/01 08:54:20;;;;;;;6.20;2.28;;;;;;;;;;5126771;27;20011;-76
2022/04/01 08:56:47;;;;;;;2.25;1.52;;;;;;;;;;5100730;28;20532;-76
2022/04/01 08:59:12;;;;;;;2.53;1.38;;;;;;;;;;5102523;28;20040;-74
2022/04/01 09:01:39;;;;;;;3.83;1.60;;;;;;;;;;5086619;28;20424;-76
2022/04/01 09:04:18;;;;;;;2.03;1.65;;;;;;;;;;5102779;27;20103;-76
2022/04/01 09:06:45;;;;;;;3.35;1.73;;;;;;;;;;5121489;27;20034;-75
2022/04/01 09:09:24;;;;;;;2.80;1.80;;;;;;;;;;5122286;27;20505;-76
2022/04/01 09:12:05;;;;;;;6.30;1.80;;;;;;;;;;5121283;27;20488;-76
2022/04/01 09:14:31;;;;;;;4.00;2.25;;;;;;;;;;5106274;27;20095;-75
2022/04/01 09:16:56;;;;;;;2.38;1.90;;;;;;;;;;5102573;28;20081;-75
2022/04/01 09:19:28;;;;;;;2.47;1.58;;;;;;;;;;5103803;28;20024;-76
2022/04/01 09:21:53;;;;;;;4.40;2.03;;;;;;;;;;5099720;28;20021;-76
2022/04/01 09:24:19;;;;;;;2.80;2.05;;;;;;;;;;5110759;27;20015;-75
2022/04/01 09:26:44;;;;;;;3.25;2.10;;;;;;;;;;5114700;27;20023;-76
2022/04/01 09:29:11;;;;;;;3.97;2.25;;;;;;;;;;5121799;27;20023;-75
2022/04/01 09:31:40;;;;;;;3.47;2.25;;;;;;;;;;5120569;27;20028;-75
2022/04/01 09:34:06;;;;;;;4.53;1.85;;;;;;;;;;5099640;28;20016;-75
2022/04/01 09:36:38;;;;;;;3.78;1.92;;;;;;;;;;5107514;27;20023;-76
2022/04/01 09:39:30;;;;;;;1.73;1.63;;;;;;;;;;5123809;27;20054;-75
2022/04/01 09:41:58;;;;;;;2.97;2.05;;;;;;;;;;5119010;27;20157;-76
2022/04/01 09:44:34;;;;;;;2.45;2.05;;;;;;;;;;5139498;27;20081;-76
2022/04/01 09:47:01;;;;;;;2.90;1.80;;;;;;;;;;5144531;27;20514;-76
2022/04/01 09:49:30;;;;;;;3.92;2.03;;;;;;;;;;5131350;27;20109;-76
2022/04/01 09:51:56;;;;;;;2.92;1.90;;;;;;;;;;5119833;27;20238;-75
2022/04/01 09:54:23;;;;;;;3.78;1.90;;;;;;;;;;5123646;27;20512;-75
2022/04/01 09:56:54;;;;;;;3.65;2.00;;;;;;;;;;5120359;27;20064;-76
2022/04/01 09:59:19;;;;;;;4.10;1.85;;;;;;;;;;5148190;27;20014;-75
2022/04/01 10:01:45;;;;;;;3.60;2.20;;;;;;;;;;5144302;27;20018;-76
2022/04/01 10:04:12;;;;;;;3.75;1.70;;;;;;;;;;5141781;27;20465;-75
2022/04/01 10:06:39;;;;;;;5.78;2.15;;;;;;;;;;5124794;27;20022;-77
2022/04/01 10:09:08;;;;;;;4.30;1.90;;;;;;;;;;5144500;27;20027;-76
2022/04/01 10:11:37;;;;;;;2.47;1.98;;;;;;;;;;5142258;27;20019;-76
2022/04/01 10:14:08;;;;;;;4.22;1.85;;;;;;;;;;5114720;27;20136;-77
2022/04/01 10:16:35;;;;;;;3.75;2.13;;;;;;;;;;5125040;27;20437;-77
2022/04/01 10:19:03;;;;;;;4.45;2.17;;;;;;;;;;5126550;27;20139;-76
2022/04/01 10:21:29;;;;;;;4.43;2.15;;;;;;;;;;5141939;27;20023;-76
2022/04/01 10:24:15;;;;;;;2.97;2.08;;;;;;;;;;5108361;27;20381;-77
2022/04/01 10:26:56;;;;;;;3.25;2.20;;;;;;;;;;5100108;27;20038;-77
2022/04/01 10:29:22;;;;;;;4.70;2.35;;;;;;;;;;5103830;27;20027;-77
2022/04/01 10:31:55;;;;;;;4.35;2.10;;;;;;;;;;5120665;27;20489;-76
2022/04/01 10:34:22;;;;;;;2.03;1.77;;;;;;;;;;5086147;27;20441;-75
2022/04/01 10:36:55;;;;;;;4.05;1.90;;;;;;;;;;5120894;27;20369;-77
2022/04/01 10:39:21;;;;;;;2.75;1.67;;;;;;;;;;5105552;27;20497;-77
2022/04/01 10:42:06;;;;;;;3.05;1.83;;;;;;;;;;5106175;27;20066;-77
2022/04/01 10:45:03;;;;;;;2.92;2.00;;;;;;;;;;5126223;27;20043;-76
2022/04/01 10:53:36;;;;;;;2.45;1.90;;;;;;;;;;5143616;27;20034;-76
2022/04/01 10:56:23;;;;;;;4.88;2.35;;;;;;;;;;5124941;27;20534;-76
2022/04/01 10:59:08;;;;;;;3.58;2.10;;;;;;;;;;5127286;27;20362;-78
2022/04/01 11:01:51;;;;;;;2.35;2.08;;;;;;;;;;5125716;27;20015;-74
2022/04/01 11:04:17;;;;;;;3.67;2.05;;;;;;;;;;5143899;27;20341;-78
2022/04/01 11:06:54;;;;;;;6.82;2.50;;;;;;;;;;5117702;27;20015;-77
2022/04/01 11:09:35;;;;;;;3.67;1.80;;;;;;;;;;5118044;27;20316;-75
2022/04/01 11:12:15;;;;;;;2.90;1.95;;;;;;;;;;5141389;27;20015;-74
2022/04/01 11:14:53;;;;;;;4.55;2.13;;;;;;;;;;5131212;27;20019;-77
2022/04/01 11:17:18;;;;;;;3.22;2.05;;;;;;;;;;5103980;27;20018;-76
2022/04/01 11:19:58;;;;;;;3.03;2.72;;;;;;;;;;5105211;27;20358;-73
2022/04/01 11:22:33;;;;;;;2.22;2.00;;;;;;;;;;5101961;27;20385;-74
2022/04/01 11:25:00;;;;;;;5.50;2.20;;;;;;;;;;5131058;27;20441;-73
2022/04/01 11:27:26;;;;;;;4.55;2.47;;;;;;;;;;5123889;27;20015;-75
2022/04/01 11:30:03;;;;;;;3.45;2.35;;;;;;;;;;5125836;27;20045;-73
2022/04/01 11:32:28;;;;;;;3.38;2.15;;;;;;;;;;5144218;27;20023;-71
2022/04/01 11:34:55;;;;;;;5.43;2.50;;;;;;;;;;5123997;27;20015;-72
2022/04/01 11:37:21;;;;;;;3.03;1.95;;;;;;;;;;5123842;27;20325;-73
2022/04/01 11:39:46;;;;;;;2.70;2.15;;;;;;;;;;5148238;27;20007;-72
2022/04/01 11:42:11;;;;;;;2.80;2.10;;;;;;;;;;5126462;27;20438;-72
2022/04/01 11:44:36;;;;;;;4.65;2.10;;;;;;;;;;5092754;27;20059;-72
2022/04/01 11:47:02;;;;;;;5.10;2.28;;;;;;;;;;5107621;27;20090;-73
2022/04/01 11:49:28;;;;;;;3.38;2.10;;;;;;;;;;5115461;27;20108;-72
2022/04/01 11:51:53;;;;;;;2.85;2.00;;;;;;;;;;5151282;27;20121;-72
2022/04/01 11:54:19;;;;;;;5.38;2.17;;;;;;;;;;5113376;27;20382;-74
2022/04/01 11:56:45;;;;;;;3.92;2.10;;;;;;;;;;5127916;27;20737;-73
2022/04/01 11:59:10;;;;;;;4.40;2.30;;;;;;;;;;5139053;27;20164;-72
2022/04/01 12:01:54;;;;;;;2.20;2.00;;;;;;;;;;5107720;27;20484;-72
2022/04/01 12:04:26;;;;;;;3.05;1.95;;;;;;;;;;5106620;27;20770;-74
2022/04/01 12:09:35;;;;;;;2.30;2.10;;;;;;;;;;5147593;27;20030;-72
2022/04/01 12:12:04;;;;;;;2.20;2.00;;;;;;;;;;5146327;27;20015;-72
2022/04/01 12:14:30;;;;;;;3.50;2.22;;;;;;;;;;5129386;27;20128;-73
2022/04/01 12:16:55;;;;;;;3.47;2.53;;;;;;;;;;5148180;27;20106;-72
2022/04/01 12:19:21;;;;;;;4.68;2.50;;;;;;;;;;5144656;27;20022;-73
2022/04/01 12:21:47;;;;;;;3.85;2.10;;;;;;;;;;5127346;27;20469;-73
2022/04/01 12:24:12;;;;;;;2.72;2.20;;;;;;;;;;5107258;27;20031;-74
2022/04/01 12:26:37;;;;;;;3.47;2.38;;;;;;;;;;5135452;27;20163;-73
2022/04/01 12:29:16;;;;;;;2.58;2.38;;;;;;;;;;5113215;27;20488;-73
2022/04/01 12:31:48;;;;;;;3.45;2.30;;;;;;;;;;5120982;27;20072;-73
2022/04/01 12:34:14;;;;;;;5.18;2.45;;;;;;;;;;5108758;27;20025;-72
2022/04/01 12:36:39;;;;;;;2.63;2.17;;;;;;;;;;5119174;27;20114;-73
2022/04/01 12:39:09;;;;;;;3.13;2.60;;;;;;;;;;5109211;27;20099;-73
2022/04/01 12:41:34;;;;;;;3.97;2.65;;;;;;;;;;5118829;27;20050;-75
2022/04/01 12:44:10;;;;;;;5.22;2.50;;;;;;;;;;5110658;27;20405;-74
2022/04/01 12:46:35;;;;;;;3.40;2.50;;;;;;;;;;5139138;27;20011;-74
2022/04/01 12:49:13;;;;;;;5.80;2.80;;;;;;;;;;5147805;27;20109;-75
2022/04/01 12:51:42;;;;;;;5.15;2.40;;;;;;;;;;5118965;27;20696;-72
2022/04/01 12:54:09;;;;;;;4.07;2.33;;;;;;;;;;5135119;27;20015;-74
2022/04/01 12:56:35;;;;;;;3.38;2.30;;;;;;;;;;5124357;27;20030;-75
2022/04/01 12:59:10;;;;;;;3.65;2.22;;;;;;;;;;5129867;27;20019;-73
2022/04/01 13:01:40;;;;;;;6.60;2.30;;;;;;;;;;5091285;27;20034;-73
2022/04/01 13:04:07;;;;;;;3.83;2.30;;;;;;;;;;5130846;27;20496;-74
2022/04/01 13:06:33;;;;;;;3.67;2.30;;;;;;;;;;5107258;27;20042;-73
2022/04/01 13:09:09;;;;;;;4.88;2.10;;;;;;;;;;5144650;27;20361;-75
2022/04/01 13:11:44;;;;;;;2.92;2.35;;;;;;;;;;5126842;27;20054;-73
2022/04/01 13:14:29;;;;;;;5.13;2.20;;;;;;;;;;5148371;27;20181;-74
2022/04/01 13:16:58;;;;;;;3.25;2.10;;;;;;;;;;5099462;27;20029;-74
2022/04/01 13:19:37;;;;;;;5.40;2.40;;;;;;;;;;5124881;27;20093;-75
2022/04/01 13:22:04;;;;;;;3.40;2.20;;;;;;;;;;5125605;27;20082;-74
2022/04/01 13:24:39;;;;;;;4.72;2.22;;;;;;;;;;5145223;27;20701;-71
2022/04/01 13:27:06;;;;;;;2.70;2.42;;;;;;;;;;5124006;27;20415;-73
2022/04/01 13:29:33;;;;;;;3.13;2.10;;;;;;;;;;5108731;27;20462;-73
2022/04/01 13:31:58;;;;;;;7.35;2.83;;;;;;;;;;5145023;27;20369;-72
2022/04/01 13:34:23;;;;;;;4.38;2.58;;;;;;;;;;5141683;27;20022;-73
2022/04/01 13:36:51;;;;;;;3.75;2.58;;;;;;;;;;5142037;27;20022;-71
2022/04/01 13:39:17;;;;;;;2.88;2.25;;;;;;;;;;5095340;27;20387;-71
2022/04/01 13:41:42;;;;;;;5.75;2.30;;;;;;;;;;5143049;27;20031;-71
2022/04/01 13:44:08;;;;;;;5.07;2.08;;;;;;;;;;5119849;27;20047;-71
2022/04/01 13:46:35;;;;;;;3.80;2.13;;;;;;;;;;5086116;27;20285;-72
2022/04/01 13:49:00;;;;;;;4.78;2.17;;;;;;;;;;5103341;27;20420;-73
2022/04/01 13:51:26;;;;;;;3.25;2.15;;;;;;;;;;5083839;27;20451;-73
2022/04/01 13:53:51;;;;;;;5.97;2.40;;;;;;;;;;5100731;27;20042;-72
2022/04/01 13:56:16;;;;;;;6.85;2.58;;;;;;;;;;5105026;27;20147;-71
2022/04/01 13:58:42;;;;;;;4.28;2.42;;;;;;;;;;5122013;27;20019;-72
2022/04/01 14:01:09;;;;;;;6.50;2.30;;;;;;;;;;5105583;27;20114;-73
2022/04/01 14:03:38;;;;;;;3.65;2.30;;;;;;;;;;5103126;27;20401;-72
2022/04/01 14:06:03;;;;;;;2.60;2.17;;;;;;;;;;5085850;27;20108;-73
2022/04/01 14:08:28;;;;;;;5.03;2.30;;;;;;;;;;5087232;27;20063;-73
2022/04/01 14:10:53;;;;;;;3.22;2.00;;;;;;;;;;5106093;27;20480;-72
2022/04/01 14:13:19;;;;;;;3.85;2.05;;;;;;;;;;5103453;27;20496;-73
2022/04/01 14:15:44;;;;;;;2.60;2.00;;;;;;;;;;5124377;27;20366;-73
2022/04/01 14:18:11;;;;;;;5.60;2.40;;;;;;;;;;5092942;27;20022;-73
2022/04/01 14:20:38;;;;;;;5.45;2.00;;;;;;;;;;5120291;27;20079;-71
2022/04/01 14:23:03;;;;;;;2.22;1.92;;;;;;;;;;5092452;27;20019;-72
2022/04/01 14:25:29;;;;;;;4.95;1.98;;;;;;;;;;5087090;27;20163;-73
2022/04/01 14:27:54;;;;;;;3.00;1.92;;;;;;;;;;5103934;27;20425;-72
2022/04/01 14:30:19;;;;;;;5.75;1.90;;;;;;;;;;5104020;27;20023;-73
2022/04/01 14:32:45;;;;;;;3.15;1.80;;;;;;;;;;5104285;27;20461;-72
2022/04/01 14:35:11;;;;;;;2.55;2.15;;;;;;;;;;5121681;27;20098;-72
2022/04/01 14:37:37;;;;;;;5.82;2.00;;;;;;;;;;5100164;27;20111;-72
2022/04/01 14:40:03;;;;;;;3.15;1.85;;;;;;;;;;5124941;27;20492;-71
2022/04/01 14:42:28;;;;;;;3.03;1.85;;;;;;;;;;5121233;27;20067;-73
2022/04/01 14:44:55;;;;;;;2.72;1.73;;;;;;;;;;5106395;27;20055;-72
2022/04/01 14:47:20;;;;;;;3.47;2.00;;;;;;;;;;5105067;27;20027;-72
2022/04/01 14:49:46;;;;;;;5.18;2.20;;;;;;;;;;5087497;27;20015;-71
2022/04/01 14:52:11;;;;;;;5.15;2.00;;;;;;;;;;5104084;27;20109;-72
2022/04/01 14:54:37;;;;;;;4.60;2.15;;;;;;;;;;5122649;27;20031;-73
2022/04/01 14:57:02;;;;;;;6.22;2.25;;;;;;;;;;5085581;27;20070;-74
2022/04/01 14:59:28;;;;;;;5.60;2.22;;;;;;;;;;5123315;27;20030;-72
2022/04/01 15:01:53;;;;;;;5.97;2.42;;;;;;;;;;5105983;27;20062;-72
2022/04/01 15:04:19;;;;;;;8.60;2.10;;;;;;;;;;5120225;27;20011;-72